Mount Sidney, Virginia
Current Conditions -  °F | °C
As of 5:15 PM on Wednesday 28 Jan 2015 (Local Time) from KSHD Reporting Station
Clear Clear  
Wind Chill: 28°   Ceiling: Unl
Heat Index: 33°   Visibility: 10mi
Dew Point:   Wind: 6mph
Humidity: 32%   Direction: 60°ENE
Pressure: 30.25"   Gusts: NA
Location:  38.26°N, 78.96°W
Report Text: KSHD 282215Z AUTO 06005KT 10SM CLR 01/M14 A3025 RMK AO2 T00071142
Loading
Personal Weather Stations






























Interactive Weather Map New forecast layout! Learn more

10-Day Weather Forecast

Advertisements
Track Severe Weather on mobile